Surface observations / Quebec / CYHU

Quebec | Canada | USA | France | UK | Europe | Elsewhere

Display: Info & Location for CYHU | Help decoding METAR

YHU SAINT-HUBERT ARPT QB CN
Raw surface observations for station CYHU
CYHU 310300Z AUTO 35005KT 9SM OVC055 05/M02 A3002 RMK SLP166=
CYHU 310200Z AUTO 34005KT 9SM OVC050 05/M02 A3002 RMK SLP168=
CYHU 310100Z AUTO 32004KT 9SM SCT039 OVC050 06/M02 A3002 RMK SLP166=
CYHU 310000Z AUTO 28008KT 9SM OVC046 07/M03 A3001 RMK SLP163=
CYHU 302300Z AUTO 28010KT 9SM OVC043 07/M01 A3001 RMK SLP162=
CYHU 302200Z AUTO 27012KT 9SM OVC049 07/M02 A2999 RMK SLP156=
CYHU 302100Z AUTO 25014KT 9SM BKN049 07/M02 A2998 RMK SLP151=
CYHU 302000Z AUTO 27010G15KT 9SM OVC045 08/M01 A2996 RMK SLP145=
CYHU 301900Z AUTO 23010G16KT 9SM BKN037 OVC050 09/01 A2995 RMK SLP143=
CYHU 301800Z AUTO 25008KT 9SM SCT040 OVC050 08/M00 A2996 RMK SLP145=
CYHU 301700Z AUTO 26008KT 9SM BKN033 09/00 A2996 RMK SLP147=
CYHU 301600Z AUTO 29004KT 260V330 9SM FEW029 08/M00 A2997 RMK SLP150=
CYHU 301500Z AUTO 34007KT 310V010 9SM FEW027 07/M00 A2997 RMK SLP150=
CYHU 301400Z AUTO 31006KT 280V350 9SM CLR 07/01 A2997 RMK SLP149=
CYHU 301300Z AUTO 30008KT 9SM CLR 06/00 A2996 RMK SLP145=
CYHU 301200Z AUTO 31006KT 9SM SCT024 05/00 A2994 RMK SLP138=
CYHU 301150Z AUTO 31007KT 9SM SCT024 05/M00 A2993 RMK SLP137=
CYHU 301139Z AUTO 30008KT 9SM BKN024 05/00 A2993 RMK SLP135=
CYHU 301100Z AUTO 30008G16KT 9SM OVC041 06/00 A2992 RMK SLP131=
CYHU 301000Z AUTO 31008G15KT 9SM OVC039 07/01 A2990 RMK SLP125=
CYHU 300900Z AUTO 31006KT 9SM OVC043 08/02 A2987 RMK SLP115=
CYHU 300800Z AUTO 30006KT 9SM BKN039 OVC100 08/03 A2985 RMK SLP109=
CYHU 300700Z AUTO 28008G15KT 9SM SCT028 OVC033 09/04 A2984 RMK SLP104=
CYHU 300600Z AUTO 27010KT 9SM FEW028 SCT055 BKN077 OVC100 09/04 A2983 RMK SLP101=
CYHU 300500Z AUTO 25010KT 9SM FEW055 OVC073 09/04 A2982 RMK SLP098=
CYHU 300400Z AUTO 25011G17KT 9SM OVC090 10/04 A2982 RMK SLP097=